Time;durP1;ratioP1;P1;durP2;ratioP2;P2;SDS_P1;SDS_P2;PMS_P1;PMS_P2;Temp;Humidity;BMP_temperature;BMP_pressure;BME280_temperature;BME280_humidity;BME280_pressure;Samples;Min_cycle;Max_cycle;Signal;HPM_P1;HPM_P2
2021/10/29 00:01:34;;;;;;;72.27;47.83;;;;;;;6.35;83.98;101700.80;1692776;84;21047;-82
2021/10/29 00:04:01;;;;;;;73.83;48.87;;;;;;;6.36;83.96;101697.77;1692924;84;21344;-82
2021/10/29 00:06:29;;;;;;;77.30;46.55;;;;;;;6.37;84.16;101700.48;1692833;84;21090;-82
2021/10/29 00:08:56;;;;;;;75.87;47.45;;;;;;;6.37;84.06;101697.86;1692629;84;21090;-81
2021/10/29 00:11:22;;;;;;;72.12;47.17;;;;;;;6.35;83.82;101703.41;1692785;84;21918;-81
2021/10/29 00:13:53;;;;;;;73.78;47.98;;;;;;;;;;1691939;84;21066;-81
2021/10/29 00:16:19;;;;;;;71.25;47.35;;;;;;;6.33;83.98;101695.89;1692317;84;21529;-81
2021/10/29 00:18:46;;;;;;;68.33;44.48;;;;;;;6.33;83.95;101693.28;1692751;84;21055;-81
2021/10/29 00:21:12;;;;;;;74.80;46.88;;;;;;;6.32;83.89;101687.95;1692575;84;21075;-81
2021/10/29 00:23:39;;;;;;;68.12;45.80;;;;;;;6.27;83.73;101682.48;1692647;84;21851;-81
2021/10/29 00:26:06;;;;;;;71.67;46.55;;;;;;;6.25;83.82;101680.19;1692626;84;21577;-82
2021/10/29 00:28:33;;;;;;;69.65;44.85;;;;;;;6.24;83.95;101679.67;1692493;84;21585;-80
2021/10/29 00:30:59;;;;;;;72.40;47.93;;;;;;;6.21;83.90;101679.11;1673348;84;21090;-81
2021/10/29 00:33:26;;;;;;;69.40;46.37;;;;;;;6.21;83.98;101679.11;1663043;85;21166;-81
2021/10/29 00:35:53;;;;;;;71.97;47.50;;;;;;;6.17;83.88;101675.80;1663264;86;21755;-82
2021/10/29 00:38:20;;;;;;;71.72;47.48;;;;;;;6.14;83.83;101674.75;1663349;85;21040;-81
2021/10/29 00:40:46;;;;;;;70.30;47.17;;;;;;;6.12;83.83;101672.42;1663444;85;21659;-81
2021/10/29 00:43:13;;;;;;;67.05;44.53;;;;;;;6.08;83.90;101673.98;1663384;85;21078;-81
2021/10/29 00:45:40;;;;;;;72.05;46.73;;;;;;;6.07;83.89;101668.66;1663326;85;21131;-80
2021/10/29 00:48:07;;;;;;;69.82;46.45;;;;;;;6.06;83.94;101663.81;1663207;86;21746;-80
2021/10/29 00:50:35;;;;;;;68.90;43.78;;;;;;;6.05;83.95;101659.84;1663270;85;21091;-80
2021/10/29 00:53:05;;;;;;;65.40;45.15;;;;;;;6.03;83.90;101662.36;1662940;85;21099;-79
2021/10/29 00:55:32;;;;;;;70.50;45.65;;;;;;;6.01;83.98;101667.91;1663297;86;21951;-80
2021/10/29 00:57:59;;;;;;;66.17;44.55;;;;;;;6.00;84.00;101664.78;1663606;86;21035;-79
2021/10/29 01:00:26;;;;;;;69.42;45.73;;;;;;;5.99;84.00;101663.00;1663889;85;21783;-80
2021/10/29 01:02:53;;;;;;;69.50;44.67;;;;;;;5.97;84.04;101663.31;1663942;85;21102;-80
2021/10/29 01:05:19;;;;;;;72.37;46.33;;;;;;;5.96;84.04;101661.08;1664085;86;21035;-80
2021/10/29 01:07:46;;;;;;;72.97;45.45;;;;;;;5.94;84.00;101667.91;1648267;86;21059;-80
2021/10/29 01:10:13;;;;;;;68.20;46.23;;;;;;;5.91;84.01;101662.52;1664164;86;21117;-80
2021/10/29 01:12:39;;;;;;;68.17;44.83;;;;;;;5.90;84.01;101659.39;1664152;86;21803;-80
2021/10/29 01:15:09;;;;;;;71.07;44.25;;;;;;;5.86;83.97;101652.20;1663323;85;21079;-79
2021/10/29 01:17:37;;;;;;;72.00;47.10;;;;;;;5.84;84.00;101650.80;1664272;86;21071;-81
2021/10/29 01:20:06;;;;;;;70.03;46.88;;;;;;;5.84;84.14;101649.91;1664129;86;21128;-81
2021/10/29 01:22:32;;;;;;;71.60;47.33;;;;;;;5.85;84.22;101644.73;1663585;86;21091;-81
2021/10/29 01:24:59;;;;;;;70.47;46.70;;;;;;;5.87;84.43;101644.83;1663443;85;21781;-81
2021/10/29 01:27:26;;;;;;;75.10;50.43;;;;;;;5.88;84.43;101641.42;1663535;85;21087;-80
2021/10/29 01:29:52;;;;;;;79.17;50.48;;;;;;;5.91;84.67;101635.46;1663619;85;21648;-81
2021/10/29 01:32:20;;;;;;;78.12;49.27;;;;;;;5.95;84.96;101629.25;1670369;85;21106;-81
2021/10/29 01:34:47;;;;;;;77.80;50.83;;;;;;;6.01;85.11;101632.20;1672340;85;21061;-82
2021/10/29 01:37:14;;;;;;;83.85;51.70;;;;;;;6.05;85.17;101633.28;1672650;85;21769;-82
2021/10/29 01:39:41;;;;;;;81.47;52.15;;;;;;;6.09;85.36;101620.88;1656821;85;21126;-81
2021/10/29 01:42:08;;;;;;;76.75;51.48;;;;;;;6.15;85.47;101624.25;1672641;85;21552;-80
2021/10/29 01:44:35;;;;;;;80.25;52.10;;;;;;;6.17;85.47;101622.20;1672472;85;21023;-81
2021/10/29 01:47:01;;;;;;;79.47;51.28;;;;;;;6.20;85.46;101617.16;1672612;85;21624;-80
2021/10/29 01:49:28;;;;;;;83.12;54.08;;;;;;;6.23;85.42;101625.19;1672533;85;21739;-80
2021/10/29 01:51:55;;;;;;;82.35;51.18;;;;;;;6.26;85.47;101619.64;1672325;85;21584;-81
2021/10/29 01:54:22;;;;;;;74.97;50.98;;;;;;;6.29;85.56;101621.09;1672392;85;21039;-81
2021/10/29 01:56:49;;;;;;;76.07;51.15;;;;;;;6.31;85.60;101615.16;1672414;85;21122;-81
2021/10/29 01:59:16;;;;;;;76.15;50.55;;;;;;;6.34;85.54;101610.08;1672318;85;21074;-81
2021/10/29 02:01:44;;;;;;;82.45;52.13;;;;;;;6.34;85.48;101608.77;1664133;85;21093;-80
2021/10/29 02:04:16;;;;;;;71.62;49.58;;;;;;;6.35;85.59;101601.44;1664196;85;21078;-79
2021/10/29 02:06:43;;;;;;;73.12;49.20;;;;;;;6.37;85.66;101597.19;1671683;85;21636;-82
2021/10/29 02:09:09;;;;;;;78.90;50.70;;;;;;;6.39;85.68;101594.25;1672483;85;21074;-81
2021/10/29 02:11:37;;;;;;;79.77;50.83;;;;;;;6.40;85.70;101593.45;1672333;85;21086;-81
2021/10/29 02:14:06;;;;;;;82.30;50.95;;;;;;;6.41;85.72;101588.69;1672396;85;21793;-81
2021/10/29 02:16:34;;;;;;;74.45;50.92;;;;;;;6.46;85.86;101585.42;1672315;85;21361;-82
2021/10/29 02:19:01;;;;;;;78.20;52.15;;;;;;;6.47;85.75;101582.90;1672363;85;22385;-82
2021/10/29 02:21:30;;;;;;;82.30;53.48;;;;;;;6.49;85.83;101585.60;1672433;85;21170;-81
2021/10/29 02:23:58;;;;;;;82.20;52.38;;;;;;;6.51;85.89;101583.55;1672338;85;21062;-81
2021/10/29 02:26:28;;;;;;;76.50;49.75;;;;;;;6.51;85.86;101582.66;1664097;85;22458;-81
2021/10/29 02:28:58;;;;;;;77.12;50.95;;;;;;;6.52;85.86;101578.83;1672329;85;21340;-81
2021/10/29 02:31:27;;;;;;;72.60;48.50;;;;;;;6.53;85.89;101570.56;1669831;85;21127;-82
2021/10/29 02:33:54;;;;;;;80.28;50.43;;;;;;;6.53;85.86;101571.88;1658725;84;21615;-82
2021/10/29 02:36:22;;;;;;;77.58;48.50;;;;;;;6.53;85.86;101567.56;1715784;83;21005;-82
2021/10/29 02:38:49;;;;;;;74.30;47.13;;;;;;;6.54;85.76;101571.07;1715811;83;21767;-82
2021/10/29 02:41:15;;;;;;;76.22;49.05;;;;;;;6.53;85.73;101567.95;1715791;83;21069;-82
2021/10/29 02:43:46;;;;;;;70.85;47.30;;;;;;;6.52;85.67;101567.47;1716010;83;21110;-82
2021/10/29 02:46:12;;;;;;;73.02;48.28;;;;;;;6.49;85.56;101563.38;1715977;83;21105;-82
2021/10/29 02:48:42;;;;;;;70.03;46.83;;;;;;;6.45;85.46;101562.30;1715431;83;21029;-82
2021/10/29 02:51:12;;;;;;;71.47;47.55;;;;;;;6.42;85.41;101560.84;1715566;83;21813;-81
2021/10/29 02:53:40;;;;;;;69.17;46.28;;;;;;;6.41;85.50;101554.70;1684656;83;21574;-82
2021/10/29 02:56:10;;;;;;;70.45;47.33;;;;;;;6.39;85.41;101556.75;1715715;83;21638;-82
2021/10/29 02:58:36;;;;;;;68.67;46.28;;;;;;;6.36;85.39;101552.26;1715793;83;21043;-83
2021/10/29 03:01:03;;;;;;;73.67;45.67;;;;;;;6.33;85.38;101558.62;1716096;83;21074;-83
2021/10/29 03:03:32;;;;;;;66.77;44.95;;;;;;;6.31;85.39;101553.72;1686219;83;21813;-82
2021/10/29 03:06:01;;;;;;;70.00;45.60;;;;;;;6.28;85.27;101552.22;1684918;83;21551;-83
2021/10/29 03:08:28;;;;;;;69.55;44.30;;;;;;;6.23;85.18;101550.68;1715880;83;21548;-83
2021/10/29 03:10:59;;;;;;;68.62;45.45;;;;;;;6.20;85.15;101549.61;1715557;83;21062;-82
2021/10/29 03:13:24;;;;;;;70.20;46.40;;;;;;;6.16;85.13;101549.84;1715426;82;21486;-82
2021/10/29 03:15:51;;;;;;;80.57;48.40;;;;;;;6.14;85.26;101551.47;1715786;83;21760;-82
2021/10/29 03:18:21;;;;;;;66.22;46.70;;;;;;;6.13;85.41;101550.97;1715732;83;21080;-82
2021/10/29 03:20:49;;;;;;;70.55;47.53;;;;;;;6.14;85.56;101552.78;1715981;83;21042;-82
2021/10/29 03:23:16;;;;;;;75.47;48.92;;;;;;;6.16;85.64;101552.88;1716078;83;21129;-82
2021/10/29 03:25:43;;;;;;;74.37;49.25;;;;;;;6.18;85.66;101552.55;1684766;83;21089;-83
2021/10/29 03:28:10;;;;;;;77.20;49.65;;;;;;;6.16;85.65;101549.84;1715908;83;21755;-83
2021/10/29 03:30:37;;;;;;;77.17;50.45;;;;;;;6.18;85.75;101555.16;1715922;83;21031;-82
2021/10/29 03:33:03;;;;;;;79.05;49.65;;;;;;;6.17;85.77;101557.27;1722030;81;21096;-82
2021/10/29 03:35:36;;;;;;;74.50;48.40;;;;;;;6.18;85.78;101552.55;1694031;83;21022;-83
2021/10/29 03:38:22;;;;;;;69.47;48.87;;;;;;;6.16;85.74;101547.64;1723692;83;21133;-83
2021/10/29 03:40:54;;;;;;;70.47;49.00;;;;;;;6.15;85.72;101550.64;1692165;83;21061;-83
2021/10/29 03:43:35;;;;;;;74.80;47.15;;;;;;;6.14;85.69;101547.97;1722594;83;21089;-83
2021/10/29 03:46:05;;;;;;;75.08;48.75;;;;;;;6.12;85.68;101544.34;1723410;83;28822;-84
2021/10/29 03:48:41;;;;;;;74.50;48.98;;;;;;;6.10;85.66;101547.28;1723418;83;21061;-83
2021/10/29 03:53:51;;;;;;;73.72;48.60;;;;;;;6.06;85.73;101536.16;1723727;83;21788;-83
2021/10/29 03:56:20;;;;;;;69.72;49.15;;;;;;;6.05;85.76;101536.58;1738530;81;21075;-82
2021/10/29 03:58:46;;;;;;;71.95;49.60;;;;;;;6.03;85.82;101537.80;1752936;81;21070;-80
2021/10/29 04:01:13;;;;;;;72.82;49.48;;;;;;;6.03;85.81;101532.57;1752836;81;21122;-81
2021/10/29 04:03:43;;;;;;;77.25;50.30;;;;;;;6.02;85.85;101529.48;1690256;84;21097;-80
2021/10/29 04:06:10;;;;;;;71.37;49.13;;;;;;;6.02;85.91;101523.33;1719150;83;21763;-79
2021/10/29 04:08:37;;;;;;;73.62;48.83;;;;;;;6.00;85.86;101523.23;1718981;83;21095;-78
2021/10/29 04:11:04;;;;;;;72.97;47.62;;;;;;;6.00;85.87;101518.02;1719164;83;21122;-79
2021/10/29 04:13:36;;;;;;;71.07;48.55;;;;;;;5.99;85.90;101514.03;1719192;83;21106;-79
2021/10/29 04:16:07;;;;;;;70.70;48.23;;;;;;;5.97;85.84;101516.55;1689279;83;21154;-78
2021/10/29 04:18:34;;;;;;;80.70;50.23;;;;;;;5.96;85.84;101516.46;1719047;83;23683;-78
2021/10/29 04:21:00;;;;;;;70.85;47.15;;;;;;;5.95;85.87;101515.92;1719115;83;21102;-77
2021/10/29 04:23:27;;;;;;;77.15;49.13;;;;;;;5.96;85.86;101516.46;1719510;83;21090;-78
2021/10/29 04:25:55;;;;;;;75.97;48.52;;;;;;;5.92;85.82;101514.47;1719516;83;21011;-78
2021/10/29 04:28:24;;;;;;;69.80;48.28;;;;;;;5.91;85.88;101514.88;1718635;83;21051;-80
2021/10/29 04:30:55;;;;;;;72.37;46.98;;;;;;;5.89;85.80;101509.95;1719510;83;21889;-80
2021/10/29 04:33:25;;;;;;;74.42;48.33;;;;;;;5.88;85.82;101506.86;1713645;83;21067;-81
2021/10/29 04:35:53;;;;;;;73.55;47.75;;;;;;;5.86;85.87;101509.80;1712633;83;21082;-83
2021/10/29 04:38:22;;;;;;;73.30;47.17;;;;;;;5.86;85.89;101508.48;1712278;83;21076;-84
2021/10/29 04:40:49;;;;;;;75.75;49.05;;;;;;;5.84;85.78;101508.81;1686249;83;21640;-80
2021/10/29 04:43:21;;;;;;;70.05;46.45;;;;;;;5.82;85.80;101507.83;1712483;83;21787;-77
2021/10/29 04:45:50;;;;;;;68.33;46.23;;;;;;;5.81;85.87;101509.94;1712166;83;21067;-77
2021/10/29 04:48:21;;;;;;;79.00;48.87;;;;;;;5.79;85.83;101506.34;1712381;83;21451;-76
2021/10/29 04:50:52;;;;;;;75.05;48.00;;;;;;;5.77;85.84;101501.44;1712163;83;21070;-77
2021/10/29 04:53:20;;;;;;;74.67;50.35;;;;;;;5.76;85.84;101503.55;1712044;83;21070;-77
2021/10/29 04:55:54;;;;;;;68.95;47.70;;;;;;;5.74;85.83;101501.25;1711103;83;21526;-77
2021/10/29 04:58:21;;;;;;;74.45;48.50;;;;;;;5.75;85.92;101503.06;1711407;83;21075;-77
2021/10/29 05:00:50;;;;;;;74.00;47.98;;;;;;;5.73;85.92;101498.16;1712473;82;21138;-77
2021/10/29 05:03:17;;;;;;;85.35;50.33;;;;;;;5.72;85.83;101496.34;1712498;83;21071;-77
2021/10/29 05:05:44;;;;;;;74.17;49.93;;;;;;;5.67;85.75;101494.80;1685768;83;21102;-77
2021/10/29 05:08:13;;;;;;;80.75;53.78;;;;;;;5.65;85.65;101491.20;1712313;83;21598;-80
2021/10/29 05:10:39;;;;;;;77.53;52.70;;;;;;;5.60;85.54;101490.92;1712141;83;21122;-81
2021/10/29 05:13:07;;;;;;;76.55;50.45;;;;;;;5.55;85.50;101484.53;1712119;83;21134;-81
2021/10/29 05:15:36;;;;;;;72.58;47.88;;;;;;;5.45;85.47;101478.30;1685047;83;21086;-81
2021/10/29 05:18:13;;;;;;;66.28;48.50;;;;;;;5.51;85.62;101483.87;1685057;83;21715;-80
2021/10/29 05:20:33;;;;;;;68.90;46.55;;;;;;;5.49;85.64;101476.36;1711095;83;21790;-81
2021/10/29 05:23:01;;;;;;;70.80;49.30;;;;;;;5.49;85.78;101481.99;1712284;83;21667;-80
2021/10/29 05:25:28;;;;;;;71.62;46.80;;;;;;;5.50;85.79;101478.55;1713069;82;22052;-81
2021/10/29 05:27:56;;;;;;;67.72;47.08;;;;;;;5.49;85.77;101471.55;1712608;83;38338;-80
2021/10/29 05:30:22;;;;;;;72.27;47.75;;;;;;;5.47;85.79;101471.45;1712886;83;21577;-80
2021/10/29 05:32:49;;;;;;;75.92;52.25;;;;;;;5.45;85.72;101477.00;1712580;83;21751;-81
2021/10/29 05:35:19;;;;;;;69.27;46.53;;;;;;;5.44;85.71;101480.41;1712246;83;21058;-80
2021/10/29 05:37:45;;;;;;;75.22;49.18;;;;;;;5.43;85.64;101477.32;1712727;83;21668;-81
2021/10/29 05:40:12;;;;;;;74.07;48.95;;;;;;;5.40;85.63;101475.83;1712772;83;21080;-81
2021/10/29 05:42:43;;;;;;;70.70;47.30;;;;;;;5.38;85.66;101480.95;1712872;83;21071;-81
2021/10/29 05:45:14;;;;;;;71.45;49.73;;;;;;;5.37;85.59;101478.28;1712271;83;21775;-80
2021/10/29 05:47:44;;;;;;;75.30;48.28;;;;;;;5.36;85.67;101477.77;1712905;83;21062;-81
2021/10/29 05:50:11;;;;;;;70.08;45.98;;;;;;;5.34;85.72;101480.30;1712755;83;21075;-81
2021/10/29 05:52:41;;;;;;;72.35;47.35;;;;;;;5.33;85.65;101479.81;1712785;83;21095;-81
2021/10/29 05:57:50;;;;;;;75.20;47.75;;;;;;;5.33;85.64;101471.98;1712992;83;21782;-80
2021/10/29 06:00:26;;;;;;;71.82;47.62;;;;;;;5.35;85.73;101471.66;1712609;83;21680;-81
2021/10/29 06:02:54;;;;;;;71.33;47.40;;;;;;;5.38;85.86;101470.92;1712520;83;21118;-80
2021/10/29 06:05:20;;;;;;;73.95;49.80;;;;;;;5.41;85.93;101471.12;1712558;83;21059;-81
2021/10/29 06:07:49;;;;;;;69.15;46.88;;;;;;;5.44;85.98;101477.41;1685472;83;21707;-81
2021/10/29 06:10:20;;;;;;;67.47;46.28;;;;;;;5.50;86.07;101472.95;1712797;83;21748;-81
2021/10/29 06:12:44;;;;;;;79.97;49.15;;;;;;;5.54;86.07;101474.92;1712442;83;21094;-81
2021/10/29 06:15:14;;;;;;;76.55;49.90;;;;;;;5.59;86.02;101477.39;1712796;83;21028;-81
2021/10/29 06:17:41;;;;;;;69.77;47.73;;;;;;;5.62;85.99;101476.23;1712619;83;21055;-81
2021/10/29 06:20:09;;;;;;;71.12;47.50;;;;;;;5.70;86.02;101481.00;1712692;83;21086;-81
2021/10/29 06:22:48;;;;;;;67.97;48.75;;;;;;;5.73;85.90;101481.19;1712834;83;21858;-81
2021/10/29 06:25:16;;;;;;;73.92;49.60;;;;;;;5.77;85.84;101481.84;1712455;83;21113;-81
2021/10/29 06:30:28;;;;;;;73.15;48.92;;;;;;;5.82;85.76;101479.09;1712729;83;21802;-77
2021/10/29 06:32:55;;;;;;;74.58;50.20;;;;;;;5.87;85.78;101486.75;1712310;83;21133;-80
2021/10/29 06:35:21;;;;;;;75.30;51.35;;;;;;;5.91;85.76;101482.22;1712086;83;21791;-81
2021/10/29 06:37:48;;;;;;;71.72;48.48;;;;;;;5.95;85.68;101480.30;1745197;82;21044;-80
2021/10/29 06:40:16;;;;;;;80.07;50.78;;;;;;;6.01;85.74;101487.16;1745411;82;21058;-80
2021/10/29 06:42:51;;;;;;;72.85;49.65;;;;;;;6.07;85.61;101487.02;1745103;82;22253;-81
2021/10/29 06:45:39;;;;;;;68.85;47.88;;;;;;;6.11;85.63;101497.70;1743735;82;21506;-81
2021/10/29 06:48:14;;;;;;;72.75;49.33;;;;;;;6.17;85.55;101501.06;1679711;84;21793;-81
2021/10/29 07:01:40;;;;;;;81.32;51.37;;;;;;;6.42;85.35;101505.93;1745171;82;22563;-81
2021/10/29 07:41:50;;;;;;;58.50;41.42;;;;;;;7.41;84.30;101487.02;1678257;82;21392;-80
2021/10/29 07:44:18;;;;;;;61.45;41.70;;;;;;;7.48;84.19;101487.81;1683074;84;21025;-81
2021/10/29 07:46:44;;;;;;;58.13;40.05;;;;;;;7.56;84.12;101482.94;1745146;82;21094;-82
2021/10/29 07:49:12;;;;;;;57.08;41.60;;;;;;;7.62;83.96;101488.51;1745204;82;21082;-81
2021/10/29 07:51:38;;;;;;;60.90;39.65;;;;;;;7.70;83.88;101491.50;1683133;85;21368;-82
2021/10/29 07:54:07;;;;;;;57.98;41.05;;;;;;;7.76;83.74;101490.47;1745069;82;21747;-81
2021/10/29 07:56:34;;;;;;;58.75;41.40;;;;;;;7.83;83.57;101483.39;1744302;82;21610;-81
2021/10/29 07:59:02;;;;;;;55.08;40.65;;;;;;;7.87;83.42;101487.95;1745132;82;21080;-82
2021/10/29 08:01:31;;;;;;;58.63;39.78;;;;;;;7.94;83.34;101482.19;1683163;85;21090;-81
2021/10/29 08:03:57;;;;;;;58.73;40.73;;;;;;;8.02;83.21;101482.97;1745028;82;21070;-81
2021/10/29 08:06:25;;;;;;;51.48;38.05;;;;;;;8.08;83.12;101484.55;1744627;82;21547;-81
2021/10/29 08:08:52;;;;;;;58.05;39.92;;;;;;;8.15;82.91;101476.16;1745021;82;21047;-81
2021/10/29 08:11:19;;;;;;;61.85;40.30;;;;;;;8.20;82.78;101477.66;1745097;81;21142;-81
2021/10/29 08:13:45;;;;;;;58.33;39.10;;;;;;;8.25;82.70;101474.84;1683123;85;21086;-81
2021/10/29 08:16:12;;;;;;;53.98;39.03;;;;;;;8.33;82.66;101475.69;1745303;82;21126;-81
2021/10/29 08:18:48;;;;;;;52.70;37.50;;;;;;;8.41;82.60;101469.87;1745304;81;22532;-81
2021/10/29 08:21:11;;;;;;;51.80;38.67;;;;;;;8.47;82.50;101471.52;1743565;82;21094;-81
2021/10/29 08:23:40;;;;;;;56.48;37.93;;;;;;;8.53;82.45;101471.78;1745163;82;21440;-81
2021/10/29 08:26:07;;;;;;;57.78;38.45;;;;;;;8.62;82.41;101468.26;1683438;84;21083;-81
2021/10/29 08:28:33;;;;;;;51.48;37.98;;;;;;;8.69;82.23;101469.41;1744975;82;21133;-81
2021/10/29 08:31:01;;;;;;;55.63;37.15;;;;;;;8.77;82.10;101469.78;1744936;81;21905;-81
2021/10/29 08:33:28;;;;;;;57.05;40.92;;;;;;;8.83;81.96;101470.03;1686745;84;21113;-82
2021/10/29 08:35:55;;;;;;;52.62;37.05;;;;;;;8.90;81.82;101475.62;1724875;83;21061;-81
2021/10/29 08:38:23;;;;;;;54.88;38.28;;;;;;;8.97;81.58;101467.57;1725039;83;21082;-81
2021/10/29 08:40:53;;;;;;;51.70;37.10;;;;;;;9.03;81.41;101478.36;1725438;83;21106;-82
2021/10/29 08:43:20;;;;;;;46.15;36.42;;;;;;;9.07;81.31;101472.40;1725003;83;22679;-81
2021/10/29 08:45:50;;;;;;;51.02;36.77;;;;;;;9.14;81.15;101481.03;1724947;83;21082;-81
2021/10/29 08:48:15;;;;;;;53.73;39.25;;;;;;;9.19;81.09;101477.27;1724332;83;21058;-82
2021/10/29 08:50:45;;;;;;;49.65;36.80;;;;;;;9.25;80.92;101474.92;1724694;83;21086;-82
2021/10/29 08:53:12;;;;;;;51.60;36.85;;;;;;;9.31;80.78;101475.17;1725060;83;21607;-82
2021/10/29 08:55:39;;;;;;;54.03;37.80;;;;;;;9.36;80.62;101467.89;1724802;83;21813;-81
2021/10/29 08:58:08;;;;;;;52.30;38.02;;;;;;;9.41;80.57;101465.93;1725001;83;21066;-81
2021/10/29 09:00:41;;;;;;;53.05;37.40;;;;;;;9.45;80.46;101460.39;1725156;83;21102;-82
2021/10/29 09:03:19;;;;;;;50.52;36.63;;;;;;;9.51;80.29;101459.31;1724722;83;21619;-82
2021/10/29 09:05:51;;;;;;;47.15;34.55;;;;;;;9.56;80.16;101460.41;1724282;83;21129;-81
2021/10/29 09:08:20;;;;;;;46.90;34.43;;;;;;;9.63;80.06;101463.77;1724582;83;21953;-81
2021/10/29 09:31:28;;;;;;;42.75;32.38;;;;;;;10.17;78.80;101447.42;1724883;83;21085;-81
2021/10/29 09:34:04;;;;;;;42.40;33.48;;;;;;;10.22;78.61;101451.56;1722932;83;21074;-81
2021/10/29 09:36:37;;;;;;;46.48;32.78;;;;;;;10.28;78.46;101446.52;1719313;83;21889;-81
2021/10/29 09:39:10;;;;;;;47.03;35.45;;;;;;;10.32;78.33;101444.51;1719374;83;21607;-81
2021/10/29 09:41:37;;;;;;;42.00;31.17;;;;;;;10.39;78.32;101439.95;1719510;83;21086;-81
2021/10/29 09:44:15;;;;;;;55.35;39.58;;;;;;;10.45;78.14;101439.28;1719455;83;21059;-81
2021/10/29 09:46:55;;;;;;;48.28;33.18;;;;;;;10.50;77.95;101433.34;1719064;83;21090;-81
2021/10/29 09:49:32;;;;;;;44.45;34.23;;;;;;;10.58;77.76;101428.35;1719154;83;21827;-81
2021/10/29 09:54:52;;;;;;;46.50;31.80;;;;;;;10.72;77.48;101439.39;1719432;83;21130;-81
2021/10/29 09:57:13;;;;;;;43.02;31.62;;;;;;;10.77;77.28;101436.91;1719206;83;21533;-81
2021/10/29 09:59:39;;;;;;;40.52;30.85;;;;;;;10.81;77.10;101435.77;1719552;83;21086;-81
2021/10/29 10:02:06;;;;;;;37.35;29.25;;;;;;;10.86;76.90;101429.33;1719479;83;21761;-81
2021/10/29 10:04:35;;;;;;;46.45;32.73;;;;;;;10.91;76.74;101421.18;1719200;83;21584;-80
2021/10/29 10:07:01;;;;;;;49.08;36.20;;;;;;;10.97;76.76;101408.20;1719433;83;21134;-81
2021/10/29 10:09:28;;;;;;;41.68;31.12;;;;;;;11.06;76.68;101416.42;1719701;83;21075;-81
2021/10/29 10:11:56;;;;;;;44.98;30.55;;;;;;;11.12;76.53;101414.41;1719661;83;21482;-81
2021/10/29 10:14:23;;;;;;;37.13;29.18;;;;;;;11.18;76.21;101408.02;1719558;83;21757;-81
2021/10/29 10:16:55;;;;;;;43.28;29.70;;;;;;;11.22;75.90;101409.94;1719440;83;21062;-81
2021/10/29 10:19:21;;;;;;;38.95;29.82;;;;;;;11.27;75.73;101410.08;1719529;83;21540;-81
2021/10/29 10:21:53;;;;;;;37.73;29.55;;;;;;;11.31;75.44;101408.44;1719592;83;21505;-81
2021/10/29 10:24:19;;;;;;;37.20;27.00;;;;;;;11.34;75.19;101408.55;1668321;83;21102;-81
2021/10/29 10:27:03;;;;;;;37.45;29.27;;;;;;;11.36;75.07;101413.45;1719476;83;22687;-81
2021/10/29 10:29:46;;;;;;;40.33;31.12;;;;;;;11.39;75.00;101410.89;1716909;83;21529;-81
2021/10/29 10:43:23;;;;;;;36.50;27.10;;;;;;;11.58;74.03;101397.46;1657545;85;21483;-81
2021/10/29 10:46:04;;;;;;;38.73;29.10;;;;;;;11.63;73.89;101396.27;1665480;86;21154;-81
2021/10/29 10:48:33;;;;;;;41.00;29.27;;;;;;;11.67;73.78;101387.20;1664894;86;21078;-80
2021/10/29 10:51:55;;;;;;;40.25;29.05;;;;;;;11.71;73.68;101385.52;1638422;86;21114;-80
2021/10/29 10:54:43;;;;;;;43.52;31.57;;;;;;;11.75;73.46;101382.55;1664578;86;22478;-81
2021/10/29 11:05:48;;;;;;;39.95;27.62;;;;;;;11.89;72.87;101372.00;1666352;86;21142;-81
2021/10/29 11:11:13;;;;;;;34.85;27.02;;;;;;;11.97;72.70;101365.67;1665997;86;21671;-82
2021/10/29 11:13:53;;;;;;;41.98;29.90;;;;;;;12.02;72.66;101374.19;1666139;86;21212;-82
2021/10/29 11:16:38;;;;;;;35.75;27.17;;;;;;;12.08;72.55;101368.19;1666002;86;21047;-81
2021/10/29 11:19:14;;;;;;;38.95;26.57;;;;;;;12.12;72.33;101371.38;1665989;86;21110;-82
2021/10/29 11:21:52;;;;;;;36.58;28.83;;;;;;;12.15;72.20;101366.20;1665944;86;21877;-81
2021/10/29 11:24:36;;;;;;;34.10;26.62;;;;;;;12.22;72.16;101369.92;1664953;86;21090;-81
2021/10/29 11:27:07;;;;;;;32.38;26.15;;;;;;;12.28;72.15;101364.80;1665088;86;21106;-81
2021/10/29 11:29:49;;;;;;;35.25;27.07;;;;;;;12.33;71.93;101368.87;1636827;86;21090;-81
2021/10/29 11:32:21;;;;;;;31.75;25.57;;;;;;;12.37;71.86;101370.74;1666134;86;21086;-82
2021/10/29 11:34:58;;;;;;;38.55;24.65;;;;;;;12.39;71.67;101365.11;1677344;84;23680;-81
2021/10/29 11:37:23;;;;;;;34.85;25.10;;;;;;;12.45;71.35;101357.34;1691724;84;21095;-82
2021/10/29 11:39:50;;;;;;;32.85;24.77;;;;;;;12.48;71.14;101356.52;1691650;84;21587;-81
2021/10/29 11:42:19;;;;;;;33.08;23.57;;;;;;;12.50;71.06;101360.09;1692027;84;21243;-81
2021/10/29 11:44:46;;;;;;;31.75;25.23;;;;;;;12.52;70.86;101356.66;1691982;84;21102;-81
2021/10/29 11:47:13;;;;;;;38.60;28.05;;;;;;;12.53;70.67;101350.95;1662168;84;21765;-81
2021/10/29 11:49:43;;;;;;;32.95;24.20;;;;;;;12.54;70.49;101348.35;1662319;84;21127;-81
2021/10/29 11:52:12;;;;;;;28.98;23.47;;;;;;;12.55;70.36;101350.56;1692074;84;21123;-81
2021/10/29 11:54:47;;;;;;;29.50;23.95;;;;;;;12.58;70.17;101343.61;1692009;84;21106;-81
2021/10/29 12:07:41;;;;;;;34.95;24.43;;;;;;;12.66;69.46;101336.33;1691746;84;21126;-81
2021/10/29 12:10:15;;;;;;;34.45;24.05;;;;;;;12.66;69.28;101329.28;1691770;84;21082;-82
2021/10/29 12:12:43;;;;;;;33.75;24.98;;;;;;;12.67;69.21;101333.73;1691994;84;21893;-82
2021/10/29 12:15:17;;;;;;;32.17;23.12;;;;;;;12.67;69.01;101323.56;1691783;84;21635;-82
2021/10/29 12:18:02;;;;;;;30.48;22.82;;;;;;;12.68;68.92;101325.37;1691924;84;21052;-82
2021/10/29 12:20:36;;;;;;;31.68;24.55;;;;;;;12.68;68.80;101327.57;1691929;84;21091;-81
2021/10/29 12:23:17;;;;;;;32.78;23.70;;;;;;;12.69;68.64;101335.98;1691841;84;21072;-82
2021/10/29 12:28:13;;;;;;;34.92;23.38;;;;;;;12.71;68.20;101331.63;1692049;84;21110;-82
2021/10/29 12:30:47;;;;;;;34.88;21.62;;;;;;;12.71;68.11;101331.63;1691663;84;21153;-82
2021/10/29 12:59:13;;;;;;;30.23;21.52;;;;;;;12.58;67.38;101311.92;1680468;85;21139;-81
2021/10/29 13:01:38;;;;;;;30.82;23.57;;;;;;;12.54;67.39;101306.10;1680615;85;21410;-81
2021/10/29 13:04:15;;;;;;;31.27;23.12;;;;;;;12.53;67.35;101307.38;1680517;85;21574;-80
2021/10/29 13:06:53;;;;;;;27.13;22.60;;;;;;;12.50;67.25;101313.48;1680900;85;21947;-81
2021/10/29 13:09:22;;;;;;;31.93;24.12;;;;;;;12.48;67.23;101313.88;1680960;85;21059;-80
2021/10/29 13:11:56;;;;;;;29.55;22.65;;;;;;;12.45;67.15;101311.14;1680878;85;21082;-80
2021/10/29 13:16:53;;;;;;;34.90;24.80;;;;;;;12.39;67.11;101309.67;1681051;85;21091;-81
2021/10/29 13:35:25;;;;;;;39.92;26.75;;;;;;;12.14;66.97;101321.29;1683689;84;21622;-82
2021/10/29 13:51:22;;;;;;;34.23;25.00;;;;;;;11.89;67.08;101313.97;1691809;84;21074;-80
2021/10/29 13:56:53;;;;;;;35.40;24.37;;;;;;;11.78;67.11;101311.45;1691802;84;21049;-80
2021/10/29 14:29:02;;;;;;;41.23;29.20;;;;;;;11.17;67.99;101315.34;1691325;84;21138;-81
2021/10/29 14:31:36;;;;;;;39.73;30.27;;;;;;;11.11;68.07;101316.88;1691564;84;21055;-81
2021/10/29 14:34:09;;;;;;;41.63;31.77;;;;;;;11.02;68.12;101311.80;1691341;84;21158;-81
2021/10/29 14:36:42;;;;;;;49.10;31.07;;;;;;;10.96;68.22;101312.00;1683707;84;21114;-81
2021/10/29 14:39:13;;;;;;;51.70;32.33;;;;;;;10.87;68.30;101306.92;1673160;85;21957;-81
2021/10/29 14:41:41;;;;;;;47.38;33.35;;;;;;;10.79;68.41;101304.47;1671573;85;21397;-82
2021/10/29 14:44:22;;;;;;;45.90;32.38;;;;;;;10.72;68.52;101303.80;1671507;85;21126;-81
2021/10/29 14:46:44;;;;;;;53.85;33.80;;;;;;;10.65;68.59;101307.06;1669372;85;21175;-81
2021/10/29 14:49:30;;;;;;;44.80;33.58;;;;;;;10.56;68.67;101302.37;1671542;85;22640;-81
2021/10/29 14:52:11;;;;;;;52.30;34.48;;;;;;;10.50;68.79;101300.85;1672008;85;21799;-81